sensor_id;sensor_type;location;lat;lon;timestamp;pressure;altitude;pressure_sealevel;temperature;humidity
73566;BME280;61846;52.970;-3.168;2023-03-01T00:00:15;102666.70;;;10.10;37.93
73566;BME280;61846;52.970;-3.168;2023-03-01T00:02:41;102667.07;;;9.10;40.43
73566;BME280;61846;52.970;-3.168;2023-03-01T00:05:07;102670.37;;;9.15;39.88
73566;BME280;61846;52.970;-3.168;2023-03-01T00:07:32;102667.38;;;9.44;40.17
73566;BME280;61846;52.970;-3.168;2023-03-01T00:09:58;102660.24;;;9.72;38.89
73566;BME280;61846;52.970;-3.168;2023-03-01T00:12:23;102665.67;;;8.52;41.18
73566;BME280;61846;52.970;-3.168;2023-03-01T00:14:49;102663.32;;;9.62;40.16
73566;BME280;61846;52.970;-3.168;2023-03-01T00:17:14;102662.41;;;8.77;41.58
73566;BME280;61846;52.970;-3.168;2023-03-01T00:19:40;102657.99;;;8.93;41.20
73566;BME280;61846;52.970;-3.168;2023-03-01T00:22:06;102657.64;;;9.58;39.67
73566;BME280;61846;52.970;-3.168;2023-03-01T00:24:32;102652.98;;;10.57;38.09
73566;BME280;61846;52.970;-3.168;2023-03-01T00:26:57;102655.22;;;10.20;38.21
73566;BME280;61846;52.970;-3.168;2023-03-01T00:29:23;102664.37;;;9.72;39.24
73566;BME280;61846;52.970;-3.168;2023-03-01T00:31:48;102655.70;;;9.83;39.44
73566;BME280;61846;52.970;-3.168;2023-03-01T00:34:14;102652.34;;;10.17;38.41
73566;BME280;61846;52.970;-3.168;2023-03-01T00:36:40;102658.09;;;8.31;42.09
73566;BME280;61846;52.970;-3.168;2023-03-01T00:39:09;102653.90;;;9.00;41.05
73566;BME280;61846;52.970;-3.168;2023-03-01T00:41:31;102651.49;;;9.85;39.71
73566;BME280;61846;52.970;-3.168;2023-03-01T00:43:57;102639.55;;;9.71;39.26
73566;BME280;61846;52.970;-3.168;2023-03-01T00:46:24;102638.69;;;10.10;38.93
73566;BME280;61846;52.970;-3.168;2023-03-01T00:48:49;102635.88;;;10.03;39.53
73566;BME280;61846;52.970;-3.168;2023-03-01T00:51:15;102630.02;;;9.80;39.30
73566;BME280;61846;52.970;-3.168;2023-03-01T00:53:39;102634.72;;;9.13;41.03
73566;BME280;61846;52.970;-3.168;2023-03-01T00:56:07;102634.60;;;8.20;42.02
73566;BME280;61846;52.970;-3.168;2023-03-01T00:58:31;102630.41;;;9.32;42.13
73566;BME280;61846;52.970;-3.168;2023-03-01T01:00:56;102632.88;;;8.88;43.26
73566;BME280;61846;52.970;-3.168;2023-03-01T01:03:22;102625.88;;;9.76;41.79
73566;BME280;61846;52.970;-3.168;2023-03-01T01:05:47;102623.36;;;10.29;41.01
73566;BME280;61846;52.970;-3.168;2023-03-01T01:08:13;102624.74;;;9.38;41.64
73566;BME280;61846;52.970;-3.168;2023-03-01T01:10:39;102625.77;;;9.82;40.81
73566;BME280;61846;52.970;-3.168;2023-03-01T01:13:05;102625.54;;;9.97;41.31
73566;BME280;61846;52.970;-3.168;2023-03-01T01:15:34;102627.59;;;9.29;42.07
73566;BME280;61846;52.970;-3.168;2023-03-01T01:17:56;102629.89;;;8.46;42.84
73566;BME280;61846;52.970;-3.168;2023-03-01T01:20:21;102619.97;;;10.14;41.13
73566;BME280;61846;52.970;-3.168;2023-03-01T01:22:47;102620.83;;;8.59;43.65
73566;BME280;61846;52.970;-3.168;2023-03-01T01:25:13;102621.23;;;9.88;41.33
73566;BME280;61846;52.970;-3.168;2023-03-01T01:27:39;102618.95;;;10.50;40.66
73566;BME280;61846;52.970;-3.168;2023-03-01T01:30:05;102620.32;;;9.72;40.98
73566;BME280;61846;52.970;-3.168;2023-03-01T01:32:30;102618.84;;;10.25;40.76
73566;BME280;61846;52.970;-3.168;2023-03-01T01:34:55;102615.46;;;10.74;40.14
73566;BME280;61846;52.970;-3.168;2023-03-01T01:37:21;102614.73;;;10.57;40.19
73566;BME280;61846;52.970;-3.168;2023-03-01T01:39:46;102615.02;;;10.90;39.21
73566;BME280;61846;52.970;-3.168;2023-03-01T01:42:15;102614.66;;;10.41;38.38
73566;BME280;61846;52.970;-3.168;2023-03-01T01:44:37;102622.49;;;10.40;39.80
73566;BME280;61846;52.970;-3.168;2023-03-01T01:47:05;102613.22;;;10.14;40.45
73566;BME280;61846;52.970;-3.168;2023-03-01T01:49:32;102615.69;;;9.38;41.30
73566;BME280;61846;52.970;-3.168;2023-03-01T01:52:01;102618.33;;;7.57;45.26
73566;BME280;61846;52.970;-3.168;2023-03-01T01:54:24;102611.33;;;9.07;42.13
73566;BME280;61846;52.970;-3.168;2023-03-01T01:56:50;102604.76;;;10.16;40.92
73566;BME280;61846;52.970;-3.168;2023-03-01T01:59:12;102603.29;;;9.28;41.55
73566;BME280;61846;52.970;-3.168;2023-03-01T02:01:37;102608.23;;;8.32;41.98
73566;BME280;61846;52.970;-3.168;2023-03-01T02:04:03;102604.40;;;7.30;43.84
73566;BME280;61846;52.970;-3.168;2023-03-01T02:06:31;102598.93;;;8.37;44.11
73566;BME280;61846;52.970;-3.168;2023-03-01T02:08:54;102597.27;;;8.70;42.37
73566;BME280;61846;52.970;-3.168;2023-03-01T02:11:20;102595.16;;;8.99;41.85
73566;BME280;61846;52.970;-3.168;2023-03-01T02:13:47;102586.39;;;8.88;42.72
73566;BME280;61846;52.970;-3.168;2023-03-01T02:16:12;102587.77;;;7.99;42.88
73566;BME280;61846;52.970;-3.168;2023-03-01T02:18:38;102592.63;;;7.45;44.49
73566;BME280;61846;52.970;-3.168;2023-03-01T02:21:12;102587.49;;;6.99;45.14
73566;BME280;61846;52.970;-3.168;2023-03-01T02:23:28;102581.07;;;7.44;44.86
73566;BME280;61846;52.970;-3.168;2023-03-01T02:25:58;102580.54;;;6.18;46.99
73566;BME280;61846;52.970;-3.168;2023-03-01T02:28:25;102581.55;;;8.23;43.51
73566;BME280;61846;52.970;-3.168;2023-03-01T02:30:47;102579.88;;;6.86;45.05
73566;BME280;61846;52.970;-3.168;2023-03-01T02:33:10;102566.75;;;7.43;44.91
73566;BME280;61846;52.970;-3.168;2023-03-01T02:35:38;102564.96;;;8.11;43.88
73566;BME280;61846;52.970;-3.168;2023-03-01T02:38:02;102558.42;;;8.97;42.53
73566;BME280;61846;52.970;-3.168;2023-03-01T02:40:28;102560.46;;;8.24;42.56
73566;BME280;61846;52.970;-3.168;2023-03-01T02:42:55;102556.04;;;7.97;43.21
73566;BME280;61846;52.970;-3.168;2023-03-01T02:45:19;102560.14;;;8.25;42.74
73566;BME280;61846;52.970;-3.168;2023-03-01T02:47:44;102556.27;;;8.84;42.56
73566;BME280;61846;52.970;-3.168;2023-03-01T02:50:18;102557.83;;;8.45;43.01
73566;BME280;61846;52.970;-3.168;2023-03-01T02:52:43;102555.33;;;7.63;45.12
73566;BME280;61846;52.970;-3.168;2023-03-01T02:55:03;102555.56;;;7.03;46.73
73566;BME280;61846;52.970;-3.168;2023-03-01T02:57:28;102551.98;;;8.61;44.47
73566;BME280;61846;52.970;-3.168;2023-03-01T02:59:54;102547.24;;;9.28;43.92
73566;BME280;61846;52.970;-3.168;2023-03-01T03:02:20;102548.25;;;9.06;43.61
73566;BME280;61846;52.970;-3.168;2023-03-01T03:04:44;102550.35;;;8.26;44.82
73566;BME280;61846;52.970;-3.168;2023-03-01T03:07:10;102545.99;;;6.88;47.12
73566;BME280;61846;52.970;-3.168;2023-03-01T03:09:35;102539.88;;;8.41;45.31
73566;BME280;61846;52.970;-3.168;2023-03-01T03:12:02;102541.12;;;8.46;43.56
73566;BME280;61846;52.970;-3.168;2023-03-01T03:14:27;102538.88;;;8.66;43.89
73566;BME280;61846;52.970;-3.168;2023-03-01T03:16:53;102539.25;;;9.56;43.27
73566;BME280;61846;52.970;-3.168;2023-03-01T03:19:19;102543.33;;;9.23;43.18
73566;BME280;61846;52.970;-3.168;2023-03-01T03:21:44;102550.11;;;8.66;45.43
73566;BME280;61846;52.970;-3.168;2023-03-01T03:24:09;102547.50;;;8.27;44.84
73566;BME280;61846;52.970;-3.168;2023-03-01T03:26:35;102536.78;;;9.11;43.85
73566;BME280;61846;52.970;-3.168;2023-03-01T03:29:01;102538.14;;;9.27;43.64
73566;BME280;61846;52.970;-3.168;2023-03-01T03:31:27;102536.44;;;9.39;43.56
73566;BME280;61846;52.970;-3.168;2023-03-01T03:33:52;102539.11;;;9.39;44.14
73566;BME280;61846;52.970;-3.168;2023-03-01T03:36:18;102537.76;;;9.22;44.07
73566;BME280;61846;52.970;-3.168;2023-03-01T03:38:43;102534.27;;;9.08;43.26
73566;BME280;61846;52.970;-3.168;2023-03-01T03:41:08;102533.88;;;9.60;42.78
73566;BME280;61846;52.970;-3.168;2023-03-01T03:43:35;102537.11;;;8.60;44.27
73566;BME280;61846;52.970;-3.168;2023-03-01T03:46:00;102531.28;;;8.15;44.04
73566;BME280;61846;52.970;-3.168;2023-03-01T03:48:26;102528.41;;;8.68;44.60
73566;BME280;61846;52.970;-3.168;2023-03-01T03:50:52;102520.82;;;8.97;43.39
73566;BME280;61846;52.970;-3.168;2023-03-01T03:53:17;102519.79;;;8.92;44.07
73566;BME280;61846;52.970;-3.168;2023-03-01T03:55:42;102515.90;;;8.21;44.57
73566;BME280;61846;52.970;-3.168;2023-03-01T03:58:09;102520.84;;;8.49;44.28
73566;BME280;61846;52.970;-3.168;2023-03-01T04:00:35;102517.62;;;8.52;44.37
73566;BME280;61846;52.970;-3.168;2023-03-01T04:02:59;102512.44;;;8.37;44.27
73566;BME280;61846;52.970;-3.168;2023-03-01T04:05:26;102507.65;;;9.34;42.57
73566;BME280;61846;52.970;-3.168;2023-03-01T04:07:51;102512.53;;;9.22;42.78
73566;BME280;61846;52.970;-3.168;2023-03-01T04:10:17;102507.62;;;9.54;41.75
73566;BME280;61846;52.970;-3.168;2023-03-01T04:12:42;102508.66;;;9.51;42.44
73566;BME280;61846;52.970;-3.168;2023-03-01T04:15:08;102502.75;;;9.43;42.43
73566;BME280;61846;52.970;-3.168;2023-03-01T04:17:33;102495.42;;;9.18;42.61
73566;BME280;61846;52.970;-3.168;2023-03-01T04:19:59;102502.91;;;9.01;41.43
73566;BME280;61846;52.970;-3.168;2023-03-01T04:22:24;102498.33;;;9.44;42.29
73566;BME280;61846;52.970;-3.168;2023-03-01T04:24:50;102498.70;;;9.42;41.99
73566;BME280;61846;52.970;-3.168;2023-03-01T04:27:16;102497.66;;;8.11;44.70
73566;BME280;61846;52.970;-3.168;2023-03-01T04:29:41;102496.10;;;9.22;42.59
73566;BME280;61846;52.970;-3.168;2023-03-01T04:32:07;102491.31;;;8.79;42.30
73566;BME280;61846;52.970;-3.168;2023-03-01T04:34:33;102491.60;;;9.35;42.31
73566;BME280;61846;52.970;-3.168;2023-03-01T04:36:58;102485.71;;;9.89;41.51
73566;BME280;61846;52.970;-3.168;2023-03-01T04:39:24;102485.03;;;9.81;42.09
73566;BME280;61846;52.970;-3.168;2023-03-01T04:41:50;102482.85;;;9.10;42.67
73566;BME280;61846;52.970;-3.168;2023-03-01T04:44:15;102486.99;;;7.71;44.81
73566;BME280;61846;52.970;-3.168;2023-03-01T04:46:41;102476.35;;;8.85;42.89
73566;BME280;61846;52.970;-3.168;2023-03-01T04:49:07;102477.44;;;9.30;42.20
73566;BME280;61846;52.970;-3.168;2023-03-01T04:51:33;102488.39;;;8.51;43.32
73566;BME280;61846;52.970;-3.168;2023-03-01T04:53:59;102484.98;;;7.80;43.01
73566;BME280;61846;52.970;-3.168;2023-03-01T04:56:24;102485.09;;;7.47;44.28
73566;BME280;61846;52.970;-3.168;2023-03-01T04:58:53;102482.42;;;7.78;44.70
73566;BME280;61846;52.970;-3.168;2023-03-01T05:01:18;102494.26;;;7.05;46.46
73566;BME280;61846;52.970;-3.168;2023-03-01T05:03:42;102490.33;;;7.30;45.94
73566;BME280;61846;52.970;-3.168;2023-03-01T05:06:07;102492.81;;;7.40;44.87
73566;BME280;61846;52.970;-3.168;2023-03-01T05:08:32;102490.12;;;7.15;45.88
73566;BME280;61846;52.970;-3.168;2023-03-01T05:10:58;102492.79;;;8.20;43.86
73566;BME280;61846;52.970;-3.168;2023-03-01T05:13:24;102489.42;;;8.26;44.10
73566;BME280;61846;52.970;-3.168;2023-03-01T05:15:55;102487.87;;;8.37;44.10
73566;BME280;61846;52.970;-3.168;2023-03-01T05:18:15;102488.37;;;7.70;44.40
73566;BME280;61846;52.970;-3.168;2023-03-01T05:20:41;102482.43;;;7.88;44.09
73566;BME280;61846;52.970;-3.168;2023-03-01T05:23:07;102479.87;;;8.51;43.73
73566;BME280;61846;52.970;-3.168;2023-03-01T05:25:33;102485.26;;;8.63;43.74
73566;BME280;61846;52.970;-3.168;2023-03-01T05:27:59;102483.48;;;7.42;44.26
73566;BME280;61846;52.970;-3.168;2023-03-01T05:30:24;102480.35;;;8.16;43.32
73566;BME280;61846;52.970;-3.168;2023-03-01T05:32:50;102484.17;;;7.74;44.17
73566;BME280;61846;52.970;-3.168;2023-03-01T05:35:17;102480.01;;;8.50;43.10
73566;BME280;61846;52.970;-3.168;2023-03-01T05:37:42;102474.51;;;8.38;42.94
73566;BME280;61846;52.970;-3.168;2023-03-01T05:40:07;102473.73;;;8.20;41.44
73566;BME280;61846;52.970;-3.168;2023-03-01T05:42:32;102475.86;;;8.02;43.26
73566;BME280;61846;52.970;-3.168;2023-03-01T05:44:58;102474.50;;;8.08;43.33
73566;BME280;61846;52.970;-3.168;2023-03-01T05:47:23;102472.23;;;8.67;42.04
73566;BME280;61846;52.970;-3.168;2023-03-01T05:49:49;102470.92;;;9.09;41.41
73566;BME280;61846;52.970;-3.168;2023-03-01T05:52:14;102467.56;;;8.60;41.64
73566;BME280;61846;52.970;-3.168;2023-03-01T05:54:40;102462.40;;;9.22;40.95
73566;BME280;61846;52.970;-3.168;2023-03-01T05:57:06;102464.25;;;9.10;40.91
73566;BME280;61846;52.970;-3.168;2023-03-01T05:59:32;102466.87;;;9.42;40.51
73566;BME280;61846;52.970;-3.168;2023-03-01T06:01:58;102476.62;;;7.73;41.85
73566;BME280;61846;52.970;-3.168;2023-03-01T06:04:23;102476.75;;;8.89;40.47
73566;BME280;61846;52.970;-3.168;2023-03-01T06:06:49;102473.24;;;8.17;41.47
73566;BME280;61846;52.970;-3.168;2023-03-01T06:09:14;102469.05;;;8.96;40.79
73566;BME280;61846;52.970;-3.168;2023-03-01T06:11:40;102472.20;;;8.75;41.27
73566;BME280;61846;52.970;-3.168;2023-03-01T06:14:06;102466.58;;;8.16;41.00
73566;BME280;61846;52.970;-3.168;2023-03-01T06:16:32;102475.67;;;8.70;41.25
73566;BME280;61846;52.970;-3.168;2023-03-01T06:18:57;102474.75;;;8.46;41.75
73566;BME280;61846;52.970;-3.168;2023-03-01T06:21:22;102477.65;;;6.78;44.99
73566;BME280;61846;52.970;-3.168;2023-03-01T06:23:48;102477.27;;;4.80;48.84
73566;BME280;61846;52.970;-3.168;2023-03-01T06:26:14;102483.48;;;6.38;46.39
73566;BME280;61846;52.970;-3.168;2023-03-01T06:28:39;102477.30;;;7.42;45.55
73566;BME280;61846;52.970;-3.168;2023-03-01T06:31:05;102475.10;;;6.05;47.35
73566;BME280;61846;52.970;-3.168;2023-03-01T06:33:30;102477.33;;;6.97;46.15
73566;BME280;61846;52.970;-3.168;2023-03-01T06:35:57;102477.95;;;6.45;46.60
73566;BME280;61846;52.970;-3.168;2023-03-01T06:38:23;102479.36;;;6.83;45.86
73566;BME280;61846;52.970;-3.168;2023-03-01T06:40:52;102482.59;;;8.28;43.61
73566;BME280;61846;52.970;-3.168;2023-03-01T06:43:13;102486.09;;;5.12;49.76
73566;BME280;61846;52.970;-3.168;2023-03-01T06:45:39;102487.34;;;5.69;48.76
73566;BME280;61846;52.970;-3.168;2023-03-01T06:48:06;102489.50;;;7.03;46.41
73566;BME280;61846;52.970;-3.168;2023-03-01T06:50:31;102486.81;;;7.41;45.90
73566;BME280;61846;52.970;-3.168;2023-03-01T06:52:56;102484.94;;;5.20;50.52
73566;BME280;61846;52.970;-3.168;2023-03-01T06:55:21;102483.44;;;5.94;48.85
73566;BME280;61846;52.970;-3.168;2023-03-01T06:57:47;102480.41;;;6.23;48.68
73566;BME280;61846;52.970;-3.168;2023-03-01T07:00:14;102484.16;;;7.36;45.75
73566;BME280;61846;52.970;-3.168;2023-03-01T07:02:38;102479.90;;;7.91;45.28
73566;BME280;61846;52.970;-3.168;2023-03-01T07:05:04;102481.74;;;7.69;45.46
73566;BME280;61846;52.970;-3.168;2023-03-01T07:07:29;102485.70;;;7.84;44.81
73566;BME280;61846;52.970;-3.168;2023-03-01T07:09:56;102482.97;;;8.01;44.22
73566;BME280;61846;52.970;-3.168;2023-03-01T07:12:21;102486.87;;;7.15;44.95
73566;BME280;61846;52.970;-3.168;2023-03-01T07:14:47;102480.71;;;8.47;43.60
73566;BME280;61846;52.970;-3.168;2023-03-01T07:17:12;102481.52;;;7.60;44.70
73566;BME280;61846;52.970;-3.168;2023-03-01T07:19:39;102485.15;;;8.21;43.45
73566;BME280;61846;52.970;-3.168;2023-03-01T07:22:03;102490.00;;;6.97;44.31
73566;BME280;61846;52.970;-3.168;2023-03-01T07:24:29;102486.08;;;8.08;43.41
73566;BME280;61846;52.970;-3.168;2023-03-01T07:26:55;102486.96;;;8.79;42.29
73566;BME280;61846;52.970;-3.168;2023-03-01T07:29:20;102487.75;;;7.96;43.61
73566;BME280;61846;52.970;-3.168;2023-03-01T07:31:45;102488.00;;;8.38;43.32
73566;BME280;61846;52.970;-3.168;2023-03-01T07:34:11;102489.32;;;7.70;43.75
73566;BME280;61846;52.970;-3.168;2023-03-01T07:36:36;102487.46;;;8.19;43.39
73566;BME280;61846;52.970;-3.168;2023-03-01T07:39:02;102487.10;;;8.19;42.62
73566;BME280;61846;52.970;-3.168;2023-03-01T07:41:27;102477.19;;;7.93;42.34
73566;BME280;61846;52.970;-3.168;2023-03-01T07:43:53;102492.74;;;7.53;44.18
73566;BME280;61846;52.970;-3.168;2023-03-01T07:46:18;102494.81;;;8.31;43.54
73566;BME280;61846;52.970;-3.168;2023-03-01T07:48:43;102503.37;;;7.92;43.42
73566;BME280;61846;52.970;-3.168;2023-03-01T07:51:10;102494.73;;;7.78;44.47
73566;BME280;61846;52.970;-3.168;2023-03-01T07:53:34;102496.56;;;7.05;45.82
73566;BME280;61846;52.970;-3.168;2023-03-01T07:56:02;102496.92;;;7.58;43.85
73566;BME280;61846;52.970;-3.168;2023-03-01T07:58:26;102488.34;;;7.28;45.16
73566;BME280;61846;52.970;-3.168;2023-03-01T08:00:51;102493.49;;;7.42;45.80
73566;BME280;61846;52.970;-3.168;2023-03-01T08:03:17;102493.36;;;7.33;45.18
73566;BME280;61846;52.970;-3.168;2023-03-01T08:05:43;102494.72;;;7.32;45.20
73566;BME280;61846;52.970;-3.168;2023-03-01T08:08:08;102496.66;;;7.14;44.44
73566;BME280;61846;52.970;-3.168;2023-03-01T08:10:34;102495.36;;;7.97;43.25
73566;BME280;61846;52.970;-3.168;2023-03-01T08:12:59;102492.82;;;7.37;44.59
73566;BME280;61846;52.970;-3.168;2023-03-01T08:15:24;102494.69;;;7.34;46.05
73566;BME280;61846;52.970;-3.168;2023-03-01T08:17:50;102496.96;;;7.73;45.01
73566;BME280;61846;52.970;-3.168;2023-03-01T08:20:16;102495.17;;;7.77;44.62
73566;BME280;61846;52.970;-3.168;2023-03-01T08:22:41;102491.21;;;8.66;43.39
73566;BME280;61846;52.970;-3.168;2023-03-01T08:25:07;102491.48;;;9.03;42.90
73566;BME280;61846;52.970;-3.168;2023-03-01T08:27:33;102496.34;;;9.05;42.62
73566;BME280;61846;52.970;-3.168;2023-03-01T08:29:58;102497.90;;;9.02;41.41
73566;BME280;61846;52.970;-3.168;2023-03-01T08:32:23;102500.89;;;9.45;41.50
73566;BME280;61846;52.970;-3.168;2023-03-01T08:34:49;102500.08;;;8.47;43.59
73566;BME280;61846;52.970;-3.168;2023-03-01T08:37:14;102499.97;;;9.59;41.19
73566;BME280;61846;52.970;-3.168;2023-03-01T08:39:40;102505.37;;;8.36;43.74
73566;BME280;61846;52.970;-3.168;2023-03-01T08:42:06;102504.54;;;8.24;42.99
73566;BME280;61846;52.970;-3.168;2023-03-01T08:44:31;102500.45;;;8.76;43.22
73566;BME280;61846;52.970;-3.168;2023-03-01T08:46:57;102503.17;;;8.56;43.51
73566;BME280;61846;52.970;-3.168;2023-03-01T08:49:23;102504.57;;;9.40;42.24
73566;BME280;61846;52.970;-3.168;2023-03-01T08:51:49;102501.73;;;8.05;43.96
73566;BME280;61846;52.970;-3.168;2023-03-01T08:54:16;102501.71;;;7.99;44.86
73566;BME280;61846;52.970;-3.168;2023-03-01T08:56:39;102499.75;;;8.83;42.50
73566;BME280;61846;52.970;-3.168;2023-03-01T08:59:05;102498.82;;;9.12;42.17
73566;BME280;61846;52.970;-3.168;2023-03-01T09:01:31;102502.05;;;9.14;42.71
73566;BME280;61846;52.970;-3.168;2023-03-01T09:03:57;102500.13;;;9.13;41.33
73566;BME280;61846;52.970;-3.168;2023-03-01T09:06:22;102497.82;;;8.11;43.77
73566;BME280;61846;52.970;-3.168;2023-03-01T09:08:49;102504.13;;;8.79;43.65
73566;BME280;61846;52.970;-3.168;2023-03-01T09:11:15;102504.71;;;7.74;43.69
73566;BME280;61846;52.970;-3.168;2023-03-01T09:13:38;102501.96;;;9.00;41.58
73566;BME280;61846;52.970;-3.168;2023-03-01T09:16:06;102516.80;;;7.88;41.86
73566;BME280;61846;52.970;-3.168;2023-03-01T09:18:29;102508.91;;;8.78;43.42
73566;BME280;61846;52.970;-3.168;2023-03-01T09:21:01;102512.17;;;8.73;42.97
73566;BME280;61846;52.970;-3.168;2023-03-01T09:23:20;102512.09;;;8.26;43.21
73566;BME280;61846;52.970;-3.168;2023-03-01T09:25:46;102502.03;;;8.81;43.01
73566;BME280;61846;52.970;-3.168;2023-03-01T09:28:12;102507.52;;;7.89;45.33
73566;BME280;61846;52.970;-3.168;2023-03-01T09:30:37;102511.48;;;8.60;44.12
73566;BME280;61846;52.970;-3.168;2023-03-01T09:33:03;102510.78;;;9.31;42.11
73566;BME280;61846;52.970;-3.168;2023-03-01T09:35:29;102509.71;;;9.82;41.73
73566;BME280;61846;52.970;-3.168;2023-03-01T09:37:55;102508.20;;;9.69;41.79
73566;BME280;61846;52.970;-3.168;2023-03-01T09:40:22;102510.19;;;9.55;41.19
73566;BME280;61846;52.970;-3.168;2023-03-01T09:42:51;102505.34;;;8.98;41.89
73566;BME280;61846;52.970;-3.168;2023-03-01T09:45:19;102508.48;;;7.62;43.91
73566;BME280;61846;52.970;-3.168;2023-03-01T09:47:37;102500.94;;;8.01;43.53
73566;BME280;61846;52.970;-3.168;2023-03-01T09:50:09;102503.55;;;6.86;45.70
73566;BME280;61846;52.970;-3.168;2023-03-01T09:52:34;102492.93;;;9.06;42.46
73566;BME280;61846;52.970;-3.168;2023-03-01T09:54:55;102489.06;;;8.53;42.58
73566;BME280;61846;52.970;-3.168;2023-03-01T09:57:26;102485.56;;;9.39;40.98
73566;BME280;61846;52.970;-3.168;2023-03-01T09:59:57;102476.21;;;10.44;40.88
73566;BME280;61846;52.970;-3.168;2023-03-01T10:02:23;102478.28;;;10.40;40.26
73566;BME280;61846;52.970;-3.168;2023-03-01T10:04:44;102462.10;;;10.14;40.24
73566;BME280;61846;52.970;-3.168;2023-03-01T10:09:29;102458.55;;;10.93;39.46
73566;BME280;61846;52.970;-3.168;2023-03-01T10:11:55;102460.61;;;10.97;38.84
73566;BME280;61846;52.970;-3.168;2023-03-01T10:14:28;102466.50;;;11.02;38.36
73566;BME280;61846;52.970;-3.168;2023-03-01T10:16:50;102460.75;;;11.71;37.58
73566;BME280;61846;52.970;-3.168;2023-03-01T10:19:14;102465.25;;;11.51;37.94
73566;BME280;61846;52.970;-3.168;2023-03-01T10:21:41;102464.63;;;10.53;39.63
73566;BME280;61846;52.970;-3.168;2023-03-01T10:24:10;102460.57;;;10.46;39.05
73566;BME280;61846;52.970;-3.168;2023-03-01T10:26:38;102459.76;;;11.15;37.99
73566;BME280;61846;52.970;-3.168;2023-03-01T10:29:00;102458.28;;;10.31;39.88
73566;BME280;61846;52.970;-3.168;2023-03-01T10:31:21;102455.49;;;10.73;39.76
73566;BME280;61846;52.970;-3.168;2023-03-01T10:33:43;102451.82;;;10.03;40.57
73566;BME280;61846;52.970;-3.168;2023-03-01T10:36:09;102442.61;;;10.14;39.81
73566;BME280;61846;52.970;-3.168;2023-03-01T10:38:47;102436.16;;;10.22;39.29
73566;BME280;61846;52.970;-3.168;2023-03-01T10:41:05;102434.09;;;11.20;39.02
73566;BME280;61846;52.970;-3.168;2023-03-01T10:43:27;102434.27;;;11.29;38.54
73566;BME280;61846;52.970;-3.168;2023-03-01T10:45:51;102429.04;;;10.13;39.95
73566;BME280;61846;52.970;-3.168;2023-03-01T10:48:18;102422.70;;;10.14;39.54
73566;BME280;61846;52.970;-3.168;2023-03-01T10:50:44;102418.12;;;9.42;41.14
73566;BME280;61846;52.970;-3.168;2023-03-01T10:53:19;102413.03;;;8.84;42.29
73566;BME280;61846;52.970;-3.168;2023-03-01T10:55:35;102417.37;;;9.82;41.33
73566;BME280;61846;52.970;-3.168;2023-03-01T10:58:11;102410.74;;;9.01;41.47
73566;BME280;61846;52.970;-3.168;2023-03-01T11:00:25;102404.09;;;9.45;40.58
73566;BME280;61846;52.970;-3.168;2023-03-01T11:02:50;102399.62;;;9.15;42.19
73566;BME280;61846;52.970;-3.168;2023-03-01T11:05:20;102408.44;;;8.99;42.81
73566;BME280;61846;52.970;-3.168;2023-03-01T11:07:48;102403.01;;;8.35;43.56
73566;BME280;61846;52.970;-3.168;2023-03-01T11:10:11;102396.44;;;7.49;43.94
73566;BME280;61846;52.970;-3.168;2023-03-01T11:12:31;102394.66;;;7.91;45.41
73566;BME280;61846;52.970;-3.168;2023-03-01T11:14:57;102397.74;;;8.08;45.30
73566;BME280;61846;52.970;-3.168;2023-03-01T11:17:25;102391.67;;;8.57;44.39
73566;BME280;61846;52.970;-3.168;2023-03-01T11:20:02;102395.98;;;8.91;44.59
73566;BME280;61846;52.970;-3.168;2023-03-01T11:22:19;102391.08;;;9.35;43.01
73566;BME280;61846;52.970;-3.168;2023-03-01T11:24:41;102391.48;;;8.85;42.95
73566;BME280;61846;52.970;-3.168;2023-03-01T11:27:10;102384.48;;;9.22;43.89
73566;BME280;61846;52.970;-3.168;2023-03-01T11:29:34;102383.21;;;8.82;43.52
73566;BME280;61846;52.970;-3.168;2023-03-01T11:32:00;102379.42;;;9.66;41.90
73566;BME280;61846;52.970;-3.168;2023-03-01T11:34:27;102375.18;;;9.90;41.95
73566;BME280;61846;52.970;-3.168;2023-03-01T11:36:51;102371.47;;;9.20;42.98
73566;BME280;61846;52.970;-3.168;2023-03-01T11:39:20;102370.56;;;9.12;42.08
73566;BME280;61846;52.970;-3.168;2023-03-01T11:41:39;102370.83;;;10.10;40.62
73566;BME280;61846;52.970;-3.168;2023-03-01T11:44:09;102354.46;;;8.24;43.02
73566;BME280;61846;52.970;-3.168;2023-03-01T11:46:36;102350.18;;;8.97;43.09
73566;BME280;61846;52.970;-3.168;2023-03-01T11:49:00;102347.74;;;9.25;42.20
73566;BME280;61846;52.970;-3.168;2023-03-01T11:51:24;102354.39;;;8.95;43.94
73566;BME280;61846;52.970;-3.168;2023-03-01T11:53:57;102352.79;;;7.46;46.14
73566;BME280;61846;52.970;-3.168;2023-03-01T11:56:18;102356.43;;;8.35;44.30
73566;BME280;61846;52.970;-3.168;2023-03-01T11:58:46;102350.21;;;9.07;42.24
73566;BME280;61846;52.970;-3.168;2023-03-01T12:01:09;102349.58;;;8.37;44.01
73566;BME280;61846;52.970;-3.168;2023-03-01T12:03:31;102345.09;;;8.31;44.19
73566;BME280;61846;52.970;-3.168;2023-03-01T12:06:10;102343.12;;;8.66;44.28
73566;BME280;61846;52.970;-3.168;2023-03-01T12:08:17;102341.52;;;8.38;43.85
73566;BME280;61846;52.970;-3.168;2023-03-01T12:10:47;102336.02;;;8.25;43.69
73566;BME280;61846;52.970;-3.168;2023-03-01T12:13:24;102333.51;;;8.55;43.76
73566;BME280;61846;52.970;-3.168;2023-03-01T12:15:39;102334.52;;;8.62;45.72
73566;BME280;61846;52.970;-3.168;2023-03-01T12:18:07;102327.70;;;8.33;44.62
73566;BME280;61846;52.970;-3.168;2023-03-01T12:20:28;102335.73;;;6.89;48.38
73566;BME280;61846;52.970;-3.168;2023-03-01T12:23:02;102321.15;;;8.45;46.68
73566;BME280;61846;52.970;-3.168;2023-03-01T12:25:21;102320.30;;;8.29;46.57
73566;BME280;61846;52.970;-3.168;2023-03-01T12:28:00;102319.84;;;8.67;46.25
73566;BME280;61846;52.970;-3.168;2023-03-01T12:30:21;102318.61;;;7.13;46.93
73566;BME280;61846;52.970;-3.168;2023-03-01T12:32:43;102318.93;;;8.52;46.42
73566;BME280;61846;52.970;-3.168;2023-03-01T12:35:06;102321.52;;;7.20;48.39
73566;BME280;61846;52.970;-3.168;2023-03-01T12:37:26;102313.76;;;8.98;45.73
73566;BME280;61846;52.970;-3.168;2023-03-01T12:39:59;102312.92;;;8.63;46.38